Belk, Alabama
Current Conditions -  °F | °C
As of 10:58 AM on Tuesday 21 Oct 2014 (Local Time) from KCBM Reporting Station
Clear Clear  
Wind Chill: 69°   Ceiling: Unl
Heat Index: 69°   Visibility: 10mi
Dew Point: 56°   Wind: 0mph
Humidity: 65%   Direction: NA
Pressure: 30.09"   Gusts: NA
Location:  33.65°N, 87.93°W
Report Text: KCBM 211558Z AUTO 00000KT 10SM CLR 20/14 A3009 RMK AO2 SLP192 T02030135 $
Loading
Personal Weather Stations






























Interactive Weather Map
Tropical Storm Tracking
New forecast layout! Learn more

10-Day Weather Forecast

Advertisements
Track Severe Weather on mobile